Latest Weather Observations for Mawson*

IDT60801

Issued at 8:33 pm EDT Tuesday 31 March 2015 (issued every 30 minutes, with the page automatically refreshed every 10 minutes)

About weather observations | Map of weather stations | Latest weather observations for ANT | Other Formats
Station Details ID: 300001 Name: MAWSON Lat: -67.60 Lon: 62.88 Height: 9.9 m
Data from the previous 72 hours. | See also: Recent months at Mawson*
Date/Time
EDT
Temp
°C
App
Temp
°C
Dew
Point
Rel
Hum
%
Delta-T
°C
Wind Press
QNH
hPa
Press
MSL
hPa
Rain
since 9 am
mm
Dir
 
Spd
km/h
Gust
km/h
Spd
kts
Gust
kts
31/08:30pm -17.1 -29.1 -28.6 36 - SSE 43 50 23 27 982.1 - -
31/08:00pm -17.9 -30.8 -27.4 43 - SSE 48 57 26 31 982.0 982.2 -
31/07:30pm -18.1 -32.5 -28.1 41 - SSE 56 65 30 35 981.9 - -
31/07:00pm -18.3 -31.6 -28.5 40 - SSE 50 59 27 32 981.9 - -
31/06:30pm -17.5 -28.7 -27.8 40 - SSE 39 44 21 24 982.0 - -
31/06:00pm -18.5 -31.0 -27.4 45 - SSE 46 56 25 30 982.2 - -
31/05:30pm -19.3 -33.4 -27.7 47 - SSE 54 63 29 34 981.8 - -
31/05:00pm -19.4 -33.5 -28.3 45 - SSE 54 61 29 33 982.0 982.2 -
31/04:30pm -19.4 -31.6 -28.0 46 - SSE 44 59 24 32 982.2 - -
31/04:20pm -19.4 -31.4 -28.3 45 - SSE 43 61 23 33 981.9 - -
31/04:04pm -19.7 -32.2 -28.3 46 - S 46 52 25 28 982.4 - -
31/04:00pm -19.4 -30.2 -28.0 46 - SSW 37 46 20 25 982.7 - -
31/03:57pm -19.7 -30.9 -28.3 46 - SSW 39 46 21 25 982.6 - -
31/03:34pm -20.3 -33.6 -28.9 46 - S 50 69 27 37 982.2 - -
31/03:30pm -20.2 -33.9 -29.2 45 - S 52 69 28 37 982.4 - -
31/03:26pm -19.9 -34.4 -29.2 43 - S 56 74 30 40 982.4 - -
31/03:00pm -19.0 -34.0 -30.0 37 - S 59 72 32 39 982.1 - -
31/02:51pm -19.0 -33.7 -29.7 38 - SSE 57 63 31 34 982.1 - -
31/02:30pm -17.9 -28.8 -29.9 34 - S 37 46 20 25 982.4 - -
31/02:23pm -18.2 -28.7 -29.3 37 - SSE 35 41 19 22 982.2 - -
31/02:00pm -19.5 -34.0 -29.6 40 - SSE 56 69 30 37 982.2 982.4 -
31/01:30pm -19.7 -33.8 -29.3 42 - SSE 54 63 29 34 982.3 - -
31/01:00pm -19.7 -29.8 -28.1 47 - SSE 33 50 18 27 982.4 - -
31/12:58pm -19.5 -29.0 -28.4 45 - SSE 30 50 16 27 982.3 - -
31/12:30pm -18.7 -28.8 -28.4 42 - SSE 33 46 18 25 982.4 - -
31/12:00pm -19.6 -28.7 -27.1 51 - SSE 28 33 15 18 982.4 - -
31/11:30am -19.6 -27.9 -26.9 52 - SE 24 26 13 14 982.4 - -
31/11:00am -19.7 -28.4 -26.8 53 - SSE 26 32 14 17 982.3 982.5 -
31/10:30am -19.7 -27.3 -27.9 48 - S 20 26 11 14 982.2 - -
31/10:00am -19.6 -27.2 -27.5 49 - S 20 24 11 13 982.2 - -
31/09:30am -19.2 -26.6 -27.9 46 - S 19 26 10 14 982.1 - -
31/09:00am -19.1 -26.7 -27.8 46 - S 20 22 11 12 982.2 - -
31/08:30am -19.7 -27.7 -27.4 50 - SSE 22 26 12 14 982.2 - -
31/08:00am -19.2 -27.6 -28.3 44 - SSE 24 30 13 16 982.5 982.7 -
31/07:30am -19.0 -27.3 -27.4 47 - S 24 28 13 15 982.7 - -
31/07:00am -18.0 -25.0 -26.3 48 - S 17 19 9 10 983.0 - -
31/06:30am -17.6 -22.5 -25.7 49 - SW 6 9 3 5 983.2 - -
31/06:00am -17.5 -22.6 -26.1 47 - SSW 7 9 4 5 983.3 - -
31/05:30am -17.2 -22.7 -25.3 49 - WSW 9 13 5 7 983.7 - -
31/05:00am -16.7 -22.9 -25.6 46 - SW 13 15 7 8 983.9 984.1 -
31/04:30am -17.1 -23.3 -25.0 50 - W 13 17 7 9 984.2 - -
31/04:00am -16.3 -22.2 -26.7 40 - W 11 17 6 9 984.4 - -
31/03:30am -16.9 -22.4 -27.3 40 - N 9 15 5 8 984.5 - -
31/03:00am -16.5 -22.0 -27.4 38 - SSE 9 20 5 11 984.7 - -
31/02:30am -16.8 -24.7 -26.1 44 - SE 22 28 12 15 984.8 - -
31/02:00am -16.7 -24.3 -27.1 40 - E 20 30 11 16 984.9 985.1 -
31/01:30am -16.3 -25.8 -26.2 42 - ESE 30 37 16 20 985.0 - -
31/01:26am -16.3 -25.4 -25.9 43 - SE 28 37 15 20 984.9 - -
31/01:00am -15.6 -21.4 -22.8 54 - SSE 11 17 6 9 985.0 - -
31/12:30am -16.3 -25.3 -24.3 50 - ENE 28 32 15 17 985.0 - -
31/12:00am -15.7 -22.6 -21.7 60 - E 17 20 9 11 985.3 - -
 
Date/Time
EDT
Temp
°C
App
Temp
°C
Dew
Point
Rel
Hum
%
Delta-T
°C
Wind Press
QNH
hPa
Press
MSL
hPa
Rain
since 9 am
mm
Dir
 
Spd
km/h
Gust
km/h
Spd
kts
Gust
kts
30/11:30pm -15.3 -21.5 -23.8 48 - E 13 30 7 16 985.3 - -
30/11:00pm -15.1 -21.2 -22.7 52 - ENE 13 17 7 9 985.4 985.6 -
30/10:30pm -15.0 -20.4 -22.4 53 - SSE 9 17 5 9 985.4 - -
30/10:00pm -14.8 -23.0 -23.3 48 - ENE 24 30 13 16 985.3 - -
30/09:30pm -15.1 -22.6 -22.5 53 - ENE 20 24 11 13 985.8 - -
30/09:00pm -15.4 -24.4 -22.0 57 - ESE 28 30 15 16 986.1 - -
30/08:30pm -15.3 -24.6 -20.7 63 - E 30 35 16 19 986.2 - -
30/08:00pm -15.4 -24.8 -23.2 51 - ESE 30 39 16 21 986.2 986.4 -
30/07:30pm -15.5 -24.9 -22.7 54 - ESE 30 35 16 19 986.3 - -
30/07:00pm -15.5 -24.9 -23.1 52 - ESE 30 35 16 19 986.4 - -
30/06:30pm -16.4 -25.8 -25.3 46 - ESE 30 35 16 19 986.6 - -
30/06:00pm -15.6 -25.5 -22.5 55 - ESE 33 43 18 23 986.8 - -
30/05:30pm -16.0 -25.9 -21.6 62 - ESE 33 39 18 21 986.7 - -
30/05:00pm -16.0 -26.1 -27.3 37 - ESE 33 41 18 22 986.7 986.9 -
30/04:40pm -14.9 -24.9 -25.4 40 - ESE 33 43 18 23 986.5 - -
30/04:30pm -15.4 -21.6 -24.8 44 - E 13 22 7 12 986.7 - -
30/04:00pm -16.8 -24.2 -25.4 47 - SE 19 28 10 15 986.6 - -
30/03:30pm -16.5 -23.5 -24.7 49 - SE 17 20 9 11 986.5 - -
30/03:00pm -17.4 -26.1 -25.5 49 - SSE 26 28 14 15 986.6 - -
30/02:30pm -17.9 -26.6 -25.5 51 - SSE 26 30 14 16 986.7 - -
30/02:00pm -18.4 -27.1 -26.0 51 - SSE 26 30 14 16 986.6 986.8 -
30/01:30pm -18.2 -26.9 -24.8 56 - SSE 26 30 14 16 986.4 - -
30/01:00pm -18.0 -24.9 -24.4 57 - SSE 17 20 9 11 986.5 - -
30/12:30pm -18.4 -27.1 -25.6 53 - SE 26 32 14 17 986.5 - -
30/12:00pm -17.9 -27.7 -25.8 50 - SSE 32 33 17 18 986.4 - -
30/11:30am -18.1 -28.1 -25.7 51 - SSE 33 37 18 20 986.5 - -
30/11:00am -18.5 -28.3 -25.7 53 - SSE 32 35 17 19 986.6 986.8 -
30/10:30am -18.2 -26.9 -24.4 58 - SSE 26 30 14 16 986.7 - -
30/10:00am -17.9 -26.2 -24.7 55 - SSE 24 28 13 15 986.8 - -
30/09:30am -17.5 -25.4 -23.5 59 - SSE 22 24 12 13 987.0 - -
30/09:00am -17.1 -25.0 -23.6 57 - SSE 22 24 12 13 987.1 - -
30/08:30am -16.0 -23.5 -24.2 49 - SSE 20 22 11 12 987.2 - -
30/08:00am -17.0 -24.9 -23.7 56 - SSE 22 26 12 14 987.4 987.6 -
30/07:30am -17.4 -26.0 -23.6 58 - SSE 26 30 14 16 987.4 - -
30/07:00am -17.4 -26.0 -23.5 59 - SSE 26 30 14 16 987.4 - -
30/06:30am -17.1 -25.4 -23.8 56 - SSE 24 26 13 14 987.6 - -
30/06:00am -16.6 -24.5 -23.3 56 - SSE 22 26 12 14 988.2 - -
30/05:30am -16.4 -24.3 -23.9 52 - SSE 22 26 12 14 988.3 - -
30/05:00am -16.4 -25.1 -24.1 51 - SSE 26 28 14 15 988.5 988.7 -
30/04:30am -16.1 -23.4 -23.2 54 - SSE 19 24 10 13 988.6 - -
30/04:00am -15.9 -24.2 -24.1 49 - SSE 24 28 13 15 988.6 - -
30/03:30am -16.2 -24.8 -23.7 52 - SSE 26 30 14 16 988.5 - -
30/03:00am -16.2 -24.8 -22.9 56 - SSE 26 28 14 15 988.4 - -
30/02:30am -15.7 -24.3 -22.0 58 - SSE 26 30 14 16 988.5 - -
30/02:00am -16.1 -24.3 -21.5 63 - SSE 24 26 13 14 988.4 988.6 -
30/01:30am -15.4 -23.2 -21.0 62 - SSE 22 24 12 13 988.4 - -
30/01:00am -15.1 -22.5 -20.5 63 - SSE 20 24 11 13 988.5 - -
30/12:30am -14.4 -21.8 -21.0 57 - S 20 24 11 13 988.7 - -
30/12:00am -14.0 -20.8 -20.8 56 - S 17 20 9 11 988.7 - -
 
Date/Time
EDT
Temp
°C
App
Temp
°C
Dew
Point
Rel
Hum
%
Delta-T
°C
Wind Press
QNH
hPa
Press
MSL
hPa
Rain
since 9 am
mm
Dir
 
Spd
km/h
Gust
km/h
Spd
kts
Gust
kts
29/11:30pm -13.6 -20.8 -20.5 56 - S 19 22 10 12 988.6 - -
29/11:00pm -13.2 -20.4 -20.5 54 - S 19 20 10 11 988.6 988.8 -
29/10:30pm -12.8 -19.2 -18.5 62 - SSE 15 19 8 10 988.5 - -
29/10:00pm -12.4 -18.4 -19.8 54 - S 13 15 7 8 988.6 - -
29/09:30pm -12.2 -17.5 -20.9 48 - SSW 9 15 5 8 988.5 - -
29/09:00pm -12.2 -17.9 -21.2 47 - SSW 11 15 6 8 988.3 - -
29/08:30pm -12.5 -19.0 -21.4 47 - S 15 19 8 10 988.2 - -
29/08:00pm -12.5 -18.2 -21.2 48 - S 11 15 6 8 988.1 988.3 -
29/07:30pm -12.5 -18.3 -22.4 43 - S 11 13 6 7 988.2 - -
29/07:00pm -12.9 -18.7 -25.4 34 - W 11 15 6 8 988.4 - -
29/06:30pm -12.4 -16.9 -25.6 32 - SW 4 7 2 4 988.3 - -
29/06:00pm -12.8 -18.3 -25.3 34 - S 9 13 5 7 988.3 - -
29/05:30pm -13.2 -19.4 -23.9 40 - S 13 15 7 8 988.2 - -
29/05:00pm -14.1 -20.3 -23.2 46 - SSE 13 17 7 9 988.0 988.2 -
29/04:30pm -14.1 -21.6 -24.7 40 - S 20 26 11 14 987.9 - -
29/04:00pm -15.0 -21.6 -25.8 39 - ESE 15 22 8 12 988.3 - -
29/03:51pm -15.2 -25.0 -25.7 40 - SSE 32 50 17 27 988.0 - -
29/03:30pm -15.9 -27.8 -25.6 43 - SSE 43 52 23 28 987.4 - -
29/03:22pm -16.1 -26.9 -25.7 43 - SSE 37 44 20 24 987.2 - -
29/03:00pm -16.1 -24.8 -26.3 41 - SE 26 35 14 19 987.7 - -
29/02:30pm -16.7 -25.0 -25.8 45 - SE 24 32 13 17 987.4 - -
29/02:28pm -16.5 -25.2 -25.9 44 - SE 26 32 14 17 987.4 - -
29/02:00pm -17.3 -29.4 -26.3 45 - SSE 44 54 24 29 987.1 987.3 -
29/01:30pm -16.9 -27.7 -26.0 45 - SSE 37 44 20 24 987.0 - -
29/01:00pm -16.8 -28.0 -25.9 45 - SSE 39 48 21 26 986.9 - -
29/12:30pm -16.3 -27.9 -26.2 42 - SSE 41 50 22 27 986.4 - -
29/12:00pm -16.1 -28.2 -26.8 39 - SE 44 54 24 29 986.1 - -
29/11:30am -13.7 -26.2 -28.2 28 - SE 46 54 25 29 986.0 - -
29/11:00am -14.9 -29.3 -28.2 31 - SE 56 67 30 36 985.7 985.9 -
29/10:30am -13.4 -26.3 -29.2 25 - SE 48 63 26 34 985.8 - -
29/10:00am -14.3 -28.7 -28.0 30 - SE 56 65 30 35 985.7 - -
29/09:30am -14.2 -27.1 -28.3 29 - SE 48 57 26 31 985.9 - -
29/09:00am -15.1 -25.9 -26.5 37 - SSE 37 46 20 25 985.7 - -
29/08:30am -15.2 -25.2 -26.6 37 - SSE 33 43 18 23 985.9 - -
29/08:00am -15.1 -26.3 -25.6 40 - SSE 39 46 21 25 985.9 986.1 -
29/07:56am -15.3 -26.9 -26.4 38 - SSE 41 44 22 24 985.8 - -
29/07:30am -15.0 -22.0 -27.9 32 - S 17 28 9 15 986.5 - -
29/07:00am -14.8 -21.4 -27.8 32 - S 15 26 8 14 986.9 - -
29/06:30am -14.7 -23.0 -27.0 34 - ESE 24 30 13 16 986.9 - -
29/06:00am -14.4 -23.5 -28.5 29 - SSE 28 41 15 22 986.8 - -
29/05:50am -14.4 -23.5 -27.7 31 - SSE 28 50 15 27 986.7 - -
29/05:30am -15.1 -24.2 -27.4 34 - SSE 28 43 15 23 986.8 - -
29/05:00am -15.3 -24.0 -25.5 41 - SSE 26 37 14 20 987.1 987.3 -
29/04:30am -14.1 -24.2 -27.5 31 - SSE 33 43 18 23 986.9 - -
29/04:00am -14.8 -24.8 -25.6 39 - SE 33 41 18 22 986.9 - -
29/03:30am -15.2 -25.6 -24.7 44 - SE 35 41 19 22 986.8 - -
29/03:11am -15.3 -24.3 -24.0 47 - ESE 28 46 15 25 987.0 - -
29/03:00am -15.2 -25.2 -23.7 48 - ESE 33 46 18 25 987.0 - -
29/02:30am -15.2 -26.7 -23.7 48 - ESE 41 54 22 29 986.9 - -
29/02:00am -15.3 -26.0 -23.3 50 - ESE 37 52 20 28 986.9 987.1 -

Other Formats:

Comma delimited format used in spreadsheet applications
http://www.bom.gov.au/fwo/IDT60803/IDT60803.89564.axf

JavaScript Object Notation format (JSON) in row-major order
http://www.bom.gov.au/fwo/IDT60803/IDT60803.89564.json